Chicago Lansing, IL

10:52 PM CDT on May 24, 2017 (GMT -0500)
Lansing Municipal

Weather History for KIGQ - September, 2012

Change the Weather History Date:

Thursday, September 13, 2012

  Actual Average (KGYY) Record (KGYY)
Temperature  
Mean Temperature 64 °F -  
Max Temperature 72 °F 80 °F 95 °F (2005)
Min Temperature 56 °F 56 °F 42 °F (2000)
Degree Days  
Heating Degree Days 1    
Growing Degree Days 14 (Base 50)    
Moisture  
Dew Point 58 °F    
Average Humidity 79    
Maximum Humidity 96    
Minimum Humidity 66    
Precipitation  
Precipitation 0.11 in - - ()
Sea Level Pressure  
Sea Level Pressure 30.24 in    
Wind  
Wind Speed 7 mph (NNW)    
Max Wind Speed 20 mph    
Max Gust Speed 30 mph    
Visibility 10 miles    
Events Rain    
Averages and records for this station are not official NWS values.
T = Trace of Precipitation, MM = Missing Value Source: NWS Daily Summary

Daily Weather History Graph

Daily Weather History Graph

Search for Another Location

Airport or City:

Trip Planner

Search our weather history database for the weather conditions in past years. The results will help you decide how hot, cold, wet, or windy it might be!

Date:

Astronomy

Sep. 13, 2012 Rise Set
Actual Time 6:28 AM CDT 7:02 PM CDT
Civil Twilight 6:00 AM CDT 7:29 PM CDT
Nautical Twilight 5:28 AM CDT 8:02 PM CDT
Astronomical Twilight 4:54 AM CDT 8:36 PM CDT
Moon 3:46 AM CDT (9/13) 5:25 PM CDT (9/13)
Length of Visible Light 13h 28m
Length of Day
12h 33m
Waning Crescent, 7% of the Moon is Illuminated
Sep 13
Waning Crescent
Sep 15
New
Sep 22
First Quarter
Sep 29
Full
Oct 8
Last Quarter

Hourly Weather History & Observations

Time (CDT) Temp. Dew Point Humidity Pressure Visibility Wind Dir Wind Speed Gust Speed Precip Events Conditions
12:15 AM 64.8 °F 57.2 °F 76% 30.16 in 10.0 mi South 6.9 mph - N/A   Clear
12:35 AM 64.4 °F 57.4 °F 78% 30.17 in 10.0 mi SSW 6.9 mph - N/A   Clear
12:55 AM 64.2 °F 57.4 °F 78% 30.18 in 10.0 mi SSW 6.9 mph - N/A   Clear
1:15 AM 63.5 °F 57.4 °F 80% 30.18 in 10.0 mi South 6.9 mph - N/A   Clear
1:35 AM 63.5 °F 57.4 °F 80% 30.18 in 10.0 mi SSW 5.8 mph - N/A   Scattered Clouds
1:55 AM 63.5 °F 57.4 °F 80% 30.18 in 10.0 mi SSW 6.9 mph - N/A   Clear
2:15 AM 63.5 °F 57.4 °F 80% 30.18 in 10.0 mi SSW 6.9 mph - N/A   Scattered Clouds
2:35 AM 63.9 °F 57.6 °F 80% 30.18 in 10.0 mi SSW 4.6 mph - N/A   Scattered Clouds
2:55 AM 63.1 °F 57.6 °F 82% 30.19 in 10.0 mi SSW 5.8 mph - N/A   Mostly Cloudy
3:15 AM 64.6 °F 57.6 °F 78% 30.19 in 10.0 mi SSW 8.1 mph - N/A   Mostly Cloudy
3:35 AM 64.0 °F 57.4 °F 79% 30.19 in 10.0 mi SW 6.9 mph - N/A   Mostly Cloudy
3:55 AM 63.0 °F 57.2 °F 81% 30.19 in 10.0 mi SW 4.6 mph - N/A   Scattered Clouds
4:15 AM 63.7 °F 57.6 °F 80% 30.20 in 10.0 mi SSW 3.5 mph - N/A   Mostly Cloudy
4:35 AM 63.0 °F 57.4 °F 82% 30.20 in 10.0 mi SSW 5.8 mph - N/A   Overcast
4:55 AM 63.7 °F 57.4 °F 80% 30.20 in 10.0 mi SSW 5.8 mph - N/A   Overcast
5:15 AM 62.6 °F 57.2 °F 82% 30.20 in 10.0 mi SSW 4.6 mph - N/A   Mostly Cloudy
5:35 AM 63.1 °F 57.6 °F 82% 30.20 in 10.0 mi SSW 4.6 mph - N/A   Overcast
5:55 AM 63.5 °F 57.7 °F 81% 30.20 in 10.0 mi SSW 5.8 mph - N/A   Overcast
6:15 AM 63.7 °F 58.1 °F 82% 30.21 in 10.0 mi SSW 3.5 mph - N/A   Overcast
6:35 AM 63.9 °F 58.1 °F 81% 30.21 in 10.0 mi SSW 6.9 mph - N/A   Overcast
6:55 AM 63.0 °F 57.6 °F 82% 30.21 in 10.0 mi SSW 3.5 mph - N/A   Scattered Clouds
7:15 AM 62.6 °F 57.7 °F 84% 30.22 in 10.0 mi SW 3.5 mph - N/A   Mostly Cloudy
7:35 AM 64.8 °F 58.8 °F 81% 30.23 in 10.0 mi Calm Calm - N/A   Overcast
7:55 AM 65.3 °F 59.0 °F 80% 30.23 in 10.0 mi Calm Calm - N/A   Overcast
8:15 AM 67.1 °F 58.8 °F 75% 30.23 in 10.0 mi WNW 3.5 mph - N/A   Overcast
8:35 AM 66.9 °F 59.4 °F 77% 30.24 in 10.0 mi NW 4.6 mph - N/A   Scattered Clouds
8:55 AM 69.3 °F 59.5 °F 71% 30.24 in 10.0 mi Calm Calm - N/A   Clear
9:15 AM 69.8 °F 59.2 °F 69% 30.24 in 10.0 mi Calm Calm - N/A   Clear
9:35 AM 70.5 °F 58.6 °F 66% 30.25 in 10.0 mi NNE 3.5 mph - N/A   Clear
9:55 AM 71.6 °F 59.7 °F 66% 30.25 in 10.0 mi North 3.5 mph - N/A   Clear
10:15 AM 71.8 °F 62.2 °F 72% 30.25 in 10.0 mi North 8.1 mph - N/A   Scattered Clouds
10:35 AM 70.3 °F 62.2 °F 75% 30.25 in 10.0 mi North 10.4 mph - N/A   Mostly Cloudy
10:55 AM 71.6 °F 62.2 °F 72% 30.25 in 10.0 mi NNE 10.4 mph - N/A   Scattered Clouds
11:15 AM 72.3 °F 61.7 °F 69% 30.26 in 10.0 mi NNE 10.4 mph - N/A   Mostly Cloudy
11:35 AM 70.3 °F 61.2 °F 73% 30.25 in 10.0 mi NNE 8.1 mph 16.1 mph N/A   Scattered Clouds
11:55 AM 72.0 °F 61.0 °F 68% 30.25 in 10.0 mi NE 11.5 mph - N/A   Scattered Clouds
12:15 PM 72.0 °F 61.2 °F 69% 30.24 in 10.0 mi NNE 10.4 mph - N/A   Clear
12:35 PM 71.6 °F 60.8 °F 69% 30.24 in 10.0 mi North 6.9 mph - N/A   Clear
12:55 PM 72.0 °F 61.0 °F 68% 30.24 in 10.0 mi NE 11.5 mph - N/A   Scattered Clouds
1:15 PM 71.8 °F 60.4 °F 67% 30.24 in 10.0 mi North 10.4 mph 16.1 mph N/A   Scattered Clouds
1:35 PM 71.8 °F 60.4 °F 67% 30.24 in 10.0 mi NNE 10.4 mph 17.3 mph N/A   Scattered Clouds
1:55 PM 70.0 °F 59.9 °F 70% 30.24 in 10.0 mi NNE 12.7 mph 17.3 mph N/A   Scattered Clouds
2:15 PM 68.9 °F 59.5 °F 72% 30.23 in 10.0 mi North 12.7 mph 19.6 mph N/A   Mostly Cloudy
2:35 PM 68.5 °F 59.0 °F 72% 30.22 in 10.0 mi North 12.7 mph 19.6 mph N/A   Overcast
2:55 PM 68.0 °F 58.5 °F 71% 30.23 in 10.0 mi North 15.0 mph 24.2 mph N/A   Overcast
3:15 PM 66.2 °F 57.9 °F 75% 30.23 in 10.0 mi North 15.0 mph 21.9 mph N/A   Overcast
3:35 PM 66.4 °F 58.6 °F 76% 30.23 in 10.0 mi NNE 12.7 mph 19.6 mph N/A   Overcast
3:55 PM 67.1 °F 58.6 °F 74% 30.23 in 10.0 mi North 17.3 mph 24.2 mph N/A   Overcast
4:15 PM 66.0 °F 58.1 °F 76% 30.23 in 10.0 mi North 19.6 mph 23.0 mph N/A   Overcast
4:35 PM 64.4 °F 57.6 °F 78% 30.24 in 10.0 mi North 13.8 mph 29.9 mph N/A   Overcast
4:55 PM 63.5 °F 57.0 °F 79% 30.24 in 10.0 mi North 15.0 mph 25.3 mph N/A   Overcast
5:15 PM 62.4 °F 56.3 °F 80% 30.25 in 10.0 mi North 16.1 mph 24.2 mph N/A   Overcast
5:35 PM 62.2 °F 56.3 °F 81% 30.25 in 10.0 mi North 11.5 mph 18.4 mph N/A   Overcast
5:55 PM 62.8 °F 56.3 °F 79% 30.25 in 10.0 mi North 16.1 mph 21.9 mph N/A   Overcast
6:15 PM 62.2 °F 56.1 °F 80% 30.26 in 10.0 mi North 15.0 mph 26.5 mph N/A   Overcast
6:35 PM 61.2 °F 55.6 °F 82% 30.26 in 10.0 mi North 11.5 mph 19.6 mph N/A   Overcast
6:55 PM 61.2 °F 55.6 °F 82% 30.26 in 10.0 mi North 9.2 mph 16.1 mph N/A   Overcast
7:15 PM 61.7 °F 56.3 °F 82% 30.26 in 10.0 mi North 10.4 mph - N/A   Overcast
7:35 PM 62.2 °F 56.3 °F 81% 30.27 in 10.0 mi North 8.1 mph 18.4 mph N/A   Overcast
7:55 PM 62.6 °F 56.5 °F 80% 30.27 in 10.0 mi North 8.1 mph 17.3 mph N/A   Overcast
8:15 PM 62.8 °F 56.3 °F 79% 30.27 in 10.0 mi North 9.2 mph - N/A   Overcast
8:35 PM 61.5 °F 57.4 °F 86% 30.28 in 10.0 mi North 9.2 mph - N/A Rain Light Rain
8:55 PM 60.8 °F 58.1 °F 91% 30.28 in 10.0 mi North 9.2 mph - N/A Rain Light Rain
9:15 PM 60.8 °F 58.5 °F 92% 30.29 in 10.0 mi North 4.6 mph - 0.01 in Rain Rain
9:35 PM 60.1 °F 58.3 °F 94% 30.29 in 10.0 mi North 5.8 mph - 0.03 in Rain Rain
9:55 PM 59.0 °F 57.2 °F 94% 30.29 in 7.0 mi NNW 9.2 mph - 0.04 in Rain Light Rain
10:15 PM 58.5 °F 57.2 °F 96% 30.30 in 5.0 mi NW 9.2 mph - 0.02 in Rain Rain
10:35 PM 57.2 °F 55.4 °F 94% 30.31 in 7.0 mi NNW 8.1 mph 16.1 mph 0.03 in Rain Rain
10:55 PM 56.3 °F 54.5 °F 94% 30.31 in 7.0 mi NNW 8.1 mph - 0.04 in Rain Rain
11:15 PM 56.1 °F 54.5 °F 94% 30.30 in 7.0 mi NNW 9.2 mph - N/A Rain Light Rain
11:35 PM 56.3 °F 54.7 °F 94% 30.30 in 7.0 mi NNW 5.8 mph - 0.02 in Rain Rain
11:55 PM 56.5 °F 55.0 °F 95% 30.30 in 10.0 mi NNW 3.5 mph - 0.03 in Rain Light Rain